Time;durP1;ratioP1;P1;durP2;ratioP2;P2;SDS_P1;SDS_P2;PMS_P1;PMS_P2;Temp;Humidity;BMP_temperature;BMP_pressure;BME280_temperature;BME280_humidity;BME280_pressure;Samples;Min_cycle;Max_cycle;Signal;HPM_P1;HPM_P2
2024/01/24 00:00:07;;;;;;;10.00;6.45;;;;;;;3.63;66.42;95652.53;4187842;28;20142;-69
2024/01/24 00:02:09;;;;;;;8.68;7.10;;;;;;;3.38;66.93;95660.97;4164046;28;20053;-69
2024/01/24 00:04:10;;;;;;;8.75;6.80;;;;;;;3.38;67.34;95660.97;4193245;28;20052;-69
2024/01/24 00:06:12;;;;;;;9.15;6.70;;;;;;;3.26;67.27;95661.69;4204154;28;20044;-70
2024/01/24 00:08:14;;;;;;;9.57;6.57;;;;;;;3.42;66.88;95661.59;4189982;28;20044;-70
2024/01/24 00:10:16;;;;;;;7.53;6.38;;;;;;;3.40;67.08;95666.03;4203501;28;20127;-69
2024/01/24 00:12:18;;;;;;;10.45;7.07;;;;;;;3.52;66.73;95667.06;4197834;28;20040;-71
2024/01/24 00:14:20;;;;;;;8.88;6.20;;;;;;;3.53;66.52;95663.53;4189767;28;20049;-70
2024/01/24 00:16:22;;;;;;;9.70;6.25;;;;;;;3.54;66.04;95665.22;4203915;28;20105;-68
2024/01/24 00:18:24;;;;;;;9.93;6.85;;;;;;;3.48;66.20;95675.03;4194117;28;20067;-69
2024/01/24 00:20:26;;;;;;;10.40;6.40;;;;;;;3.44;66.49;95678.72;4189407;28;20139;-68
2024/01/24 00:22:28;;;;;;;8.00;5.82;;;;;;;3.46;66.64;95679.47;4186976;28;20400;-70
2024/01/24 00:24:29;;;;;;;10.25;5.90;;;;;;;3.59;66.22;95679.56;4179236;28;20056;-70
2024/01/24 00:26:32;;;;;;;9.63;6.07;;;;;;;3.55;65.81;95670.31;4185490;28;20451;-69
2024/01/24 00:28:34;;;;;;;9.27;6.20;;;;;;;3.61;65.82;95672.50;4187267;28;20067;-69
2024/01/24 00:30:36;;;;;;;9.70;6.18;;;;;;;3.63;65.77;95680.19;4188927;28;20144;-71
2024/01/24 00:32:38;;;;;;;8.50;6.20;;;;;;;3.55;65.39;95685.00;4193225;28;20502;-69
2024/01/24 00:34:40;;;;;;;9.07;6.22;;;;;;;3.54;65.36;95681.59;4190577;28;20048;-69
2024/01/24 00:36:41;;;;;;;8.20;6.35;;;;;;;3.59;65.67;95682.16;4184319;28;20048;-68
2024/01/24 00:38:43;;;;;;;9.23;6.40;;;;;;;3.51;65.68;95681.78;4184569;28;20078;-71
2024/01/24 00:40:45;;;;;;;11.88;6.40;;;;;;;3.49;65.62;95675.88;4191835;28;20055;-70
2024/01/24 00:42:48;;;;;;;8.32;6.07;;;;;;;3.53;65.31;95687.72;4189639;28;20052;-68
2024/01/24 00:44:51;;;;;;;8.90;6.45;;;;;;;3.44;65.07;95686.50;4208981;28;20440;-69
2024/01/24 00:46:53;;;;;;;10.57;5.85;;;;;;;3.49;65.06;95683.63;4200152;28;20123;-69
2024/01/24 00:48:54;;;;;;;7.95;5.63;;;;;;;3.49;65.37;95688.81;4190578;28;20499;-69
2024/01/24 00:50:56;;;;;;;6.97;5.55;;;;;;;3.54;64.89;95686.78;4189532;28;20060;-69
2024/01/24 00:53:04;;;;;;;7.05;4.93;;;;;;;3.52;65.47;95685.19;4190958;28;20040;-69
2024/01/24 00:55:06;;;;;;;10.55;6.05;;;;;;;3.49;64.61;95694.00;4189338;28;20056;-69
2024/01/24 00:57:08;;;;;;;9.00;5.80;;;;;;;3.42;65.26;95690.94;4189999;28;20512;-70
2024/01/24 00:59:10;;;;;;;8.50;5.97;;;;;;;3.48;64.73;95685.41;4189135;28;20056;-67
2024/01/24 01:01:12;;;;;;;8.85;5.68;;;;;;;3.38;64.83;95686.88;4183568;28;20337;-69
2024/01/24 01:03:14;;;;;;;8.45;5.68;;;;;;;3.37;65.25;95689.53;4192521;28;20195;-69
2024/01/24 01:05:16;;;;;;;8.20;5.65;;;;;;;3.39;65.11;95687.69;4184066;28;20523;-68
2024/01/24 01:07:18;;;;;;;8.85;6.60;;;;;;;3.35;64.97;95681.84;4205003;28;20094;-69
2024/01/24 01:09:20;;;;;;;11.52;7.55;;;;;;;3.31;65.39;95684.72;4192106;28;20048;-69
2024/01/24 01:11:22;;;;;;;8.93;6.55;;;;;;;3.26;65.81;95672.88;4181000;28;20423;-71
2024/01/24 01:13:24;;;;;;;11.75;6.65;;;;;;;3.26;66.00;95667.69;4183182;28;20400;-68
2024/01/24 01:15:25;;;;;;;9.40;6.50;;;;;;;3.30;65.64;95670.13;4200120;28;20169;-69
2024/01/24 01:17:27;;;;;;;10.57;6.63;;;;;;;3.21;65.99;95664.56;4184675;28;20064;-70
2024/01/24 01:19:29;;;;;;;9.25;5.88;;;;;;;3.20;65.58;95677.56;4188129;28;20548;-68
2024/01/24 01:21:31;;;;;;;9.85;6.55;;;;;;;3.20;65.57;95673.22;4166131;28;20616;-69
2024/01/24 01:23:33;;;;;;;10.77;6.88;;;;;;;3.14;65.74;95676.19;4190503;28;20121;-68
2024/01/24 01:25:34;;;;;;;9.07;6.35;;;;;;;3.14;65.87;95677.94;4181623;28;20049;-69
2024/01/24 01:27:36;;;;;;;8.65;6.28;;;;;;;3.23;66.04;95670.47;4186069;28;20060;-69
2024/01/24 01:31:59;;;;;;;10.73;6.35;;;;;;;3.18;65.56;95679.41;4187212;28;20040;-69
2024/01/24 01:34:02;;;;;;;9.52;6.53;;;;;;;3.12;66.04;95672.00;4183349;28;20048;-71
2024/01/24 01:36:04;;;;;;;9.60;7.05;;;;;;;3.12;66.44;95677.19;4188127;28;20041;-69
2024/01/24 01:38:23;;;;;;;9.52;7.32;;;;;;;3.15;66.41;95670.09;4189939;28;20479;-69
2024/01/24 01:40:24;;;;;;;11.18;8.05;;;;;;;3.16;66.16;95674.34;4191430;28;20142;-70
2024/01/24 01:42:26;;;;;;;8.93;6.80;;;;;;;3.12;66.24;95667.69;4189194;28;20049;-69
2024/01/24 01:44:28;;;;;;;9.65;7.43;;;;;;;3.18;66.18;95669.88;4188047;28;20048;-70
2024/01/24 01:46:31;;;;;;;10.77;7.32;;;;;;;3.21;65.96;95671.50;4191073;28;20298;-68
2024/01/24 01:48:34;;;;;;;9.18;6.93;;;;;;;3.18;65.95;95667.31;4184735;28;20673;-68
2024/01/24 01:50:37;;;;;;;11.18;7.25;;;;;;;3.16;65.64;95666.59;4188483;28;20476;-70
2024/01/24 01:52:39;;;;;;;10.15;6.63;;;;;;;3.10;65.71;95668.69;4189257;28;20045;-69
2024/01/24 01:54:42;;;;;;;8.70;6.50;;;;;;;3.01;66.46;95672.63;4180207;28;20045;-70
2024/01/24 01:56:43;;;;;;;10.37;6.90;;;;;;;3.05;66.03;95663.78;4182907;28;20048;-69
2024/01/24 01:58:46;;;;;;;8.85;6.15;;;;;;;3.04;65.81;95651.75;4191571;28;20882;-69
2024/01/24 02:00:49;;;;;;;8.10;5.90;;;;;;;3.06;66.14;95655.09;4185752;28;20051;-69
2024/01/24 02:02:53;;;;;;;8.68;6.60;;;;;;;3.11;66.05;95650.47;4182728;28;20119;-67
2024/01/24 02:04:54;;;;;;;10.33;6.53;;;;;;;3.14;65.56;95639.94;4198653;28;20097;-69
2024/01/24 02:06:56;;;;;;;9.45;6.25;;;;;;;3.20;65.53;95649.09;4187879;28;20297;-68
2024/01/24 02:08:58;;;;;;;8.55;6.10;;;;;;;3.15;65.72;95643.38;4181968;28;20502;-68
2024/01/24 02:11:01;;;;;;;10.57;6.57;;;;;;;3.15;65.43;95644.19;4191454;28;20578;-69
2024/01/24 02:13:03;;;;;;;9.48;6.60;;;;;;;3.16;65.27;95642.44;4174945;28;20468;-70
2024/01/24 02:15:08;;;;;;;9.35;5.90;;;;;;;3.11;65.58;95647.88;4187838;28;20359;-69
2024/01/24 02:17:09;;;;;;;9.43;6.95;;;;;;;3.11;65.40;95644.47;4183818;28;20063;-71
2024/01/24 02:19:11;;;;;;;9.52;6.38;;;;;;;3.10;65.44;95643.63;4201428;28;20050;-70
2024/01/24 02:21:13;;;;;;;9.30;6.32;;;;;;;3.13;65.57;95651.22;4186436;28;20087;-70
2024/01/24 02:23:17;;;;;;;8.57;6.20;;;;;;;3.11;64.91;95637.53;4192845;28;20610;-69
2024/01/24 02:25:19;;;;;;;10.43;7.07;;;;;;;3.19;64.79;95639.69;4187310;28;20058;-67
2024/01/24 02:27:21;;;;;;;10.23;6.90;;;;;;;3.18;64.92;95640.59;4190796;28;20056;-69
2024/01/24 02:29:23;;;;;;;10.88;7.00;;;;;;;3.19;64.99;95635.31;4188321;28;20067;-70
2024/01/24 02:31:25;;;;;;;9.73;6.55;;;;;;;3.22;64.88;95631.72;4191616;28;20278;-69
2024/01/24 02:33:27;;;;;;;13.10;6.88;;;;;;;3.22;64.29;95636.88;4187569;28;20132;-70
2024/01/24 02:35:28;;;;;;;11.40;7.15;;;;;;;3.25;64.92;95632.38;4188964;28;20061;-69
2024/01/24 02:37:30;;;;;;;10.35;7.20;;;;;;;3.26;64.12;95634.03;4180439;28;20116;-70
2024/01/24 02:39:32;;;;;;;9.70;7.15;;;;;;;3.22;64.24;95631.72;4184881;28;20083;-67
2024/01/24 02:41:35;;;;;;;11.55;7.43;;;;;;;3.18;64.41;95625.88;4182095;28;20060;-69
2024/01/24 02:43:37;;;;;;;10.25;7.20;;;;;;;3.14;64.33;95633.91;4186630;28;20125;-71
2024/01/24 02:45:39;;;;;;;10.55;6.93;;;;;;;3.19;64.30;95626.72;4190732;28;20423;-70
2024/01/24 02:47:40;;;;;;;9.20;6.75;;;;;;;3.17;64.25;95637.16;4189132;28;20127;-68
2024/01/24 02:49:42;;;;;;;10.05;7.40;;;;;;;3.14;64.25;95639.09;4186019;28;20052;-68
2024/01/24 02:51:44;;;;;;;9.80;7.25;;;;;;;3.08;64.17;95637.72;4187292;28;20079;-70
2024/01/24 02:53:46;;;;;;;11.95;7.97;;;;;;;3.10;63.97;95633.28;4188568;28;20408;-69
2024/01/24 02:55:48;;;;;;;11.35;7.88;;;;;;;3.09;64.67;95636.78;4184880;28;20041;-68
2024/01/24 02:57:50;;;;;;;11.15;7.65;;;;;;;3.12;64.13;95641.78;4182319;28;20424;-68
2024/01/24 02:59:52;;;;;;;11.50;7.30;;;;;;;3.08;64.18;95630.78;4182755;28;20147;-70
2024/01/24 03:01:54;;;;;;;11.23;7.35;;;;;;;3.09;64.32;95636.78;4188805;28;20044;-70
2024/01/24 03:03:56;;;;;;;9.18;7.18;;;;;;;3.11;64.23;95637.53;4194736;28;20430;-71
2024/01/24 03:05:58;;;;;;;8.55;6.60;;;;;;;3.16;64.32;95634.66;4185612;28;20049;-69
2024/01/24 03:08:00;;;;;;;10.40;7.15;;;;;;;3.18;63.99;95643.16;4182439;28;20049;-70
2024/01/24 03:10:02;;;;;;;10.30;6.93;;;;;;;3.20;63.68;95641.31;4179759;28;20045;-69
2024/01/24 03:12:04;;;;;;;9.07;6.85;;;;;;;3.13;63.66;95634.84;4200590;28;20044;-71
2024/01/24 03:14:06;;;;;;;9.57;6.97;;;;;;;3.09;63.43;95629.00;4188366;28;20468;-70
2024/01/24 03:16:08;;;;;;;12.68;8.13;;;;;;;3.06;63.55;95629.22;4188692;28;20436;-68
2024/01/24 03:18:10;;;;;;;9.05;7.20;;;;;;;3.11;63.54;95628.94;4187765;28;20237;-70
2024/01/24 03:20:13;;;;;;;12.32;7.40;;;;;;;3.11;63.40;95622.00;4187631;28;20049;-69
2024/01/24 03:22:15;;;;;;;11.70;7.53;;;;;;;3.04;63.74;95616.34;4182839;28;20439;-70
2024/01/24 03:24:17;;;;;;;12.32;6.90;;;;;;;3.11;63.76;95616.81;4187628;28;20460;-69
2024/01/24 03:26:19;;;;;;;9.23;6.82;;;;;;;3.11;63.22;95611.63;4184221;28;20052;-70
2024/01/24 03:28:20;;;;;;;10.65;7.57;;;;;;;3.07;63.36;95610.97;4190599;28;20058;-70
2024/01/24 03:30:22;;;;;;;11.45;7.38;;;;;;;3.06;63.50;95611.91;4189778;28;20056;-70
2024/01/24 03:32:24;;;;;;;9.88;7.40;;;;;;;3.08;63.73;95606.66;4182514;28;20067;-69
2024/01/24 03:34:30;;;;;;;11.45;7.85;;;;;;;3.11;63.24;95619.41;4190354;28;20067;-69
2024/01/24 03:36:32;;;;;;;13.02;7.15;;;;;;;2.98;63.79;95637.41;4187588;28;20569;-69
2024/01/24 03:38:34;;;;;;;10.00;7.13;;;;;;;3.02;63.92;95625.97;4187855;28;20082;-69
2024/01/24 03:40:36;;;;;;;9.77;7.30;;;;;;;3.04;63.95;95628.47;4178255;28;20052;-69
2024/01/24 03:42:38;;;;;;;12.10;7.85;;;;;;;3.03;63.81;95626.78;4200855;28;20044;-67
2024/01/24 03:44:40;;;;;;;12.50;8.18;;;;;;;3.11;63.66;95628.94;4188307;28;20056;-67
2024/01/24 03:46:41;;;;;;;10.55;8.40;;;;;;;3.10;63.20;95625.53;4192088;28;20261;-69
2024/01/24 03:48:43;;;;;;;10.60;7.88;;;;;;;3.13;63.19;95634.84;4186345;28;20544;-68
2024/01/24 03:50:45;;;;;;;12.13;7.85;;;;;;;3.14;63.50;95631.31;4183939;28;20484;-70
2024/01/24 03:52:47;;;;;;;12.20;8.40;;;;;;;3.13;63.43;95622.72;4197422;28;20055;-69
2024/01/24 03:54:48;;;;;;;11.45;7.50;;;;;;;3.18;62.87;95628.47;4204560;28;20560;-69
2024/01/24 03:56:50;;;;;;;12.20;7.68;;;;;;;3.13;63.37;95621.91;4172170;28;20049;-70
2024/01/24 03:58:52;;;;;;;10.98;7.55;;;;;;;3.10;63.20;95609.13;4186855;28;20551;-69
2024/01/24 04:00:55;;;;;;;9.30;7.25;;;;;;;3.10;63.04;95615.16;4185939;28;20586;-70
2024/01/24 04:02:57;;;;;;;9.38;7.22;;;;;;;3.04;63.22;95618.09;4187810;28;20064;-69
2024/01/24 04:04:59;;;;;;;9.05;7.10;;;;;;;3.06;63.31;95611.09;4189593;28;20123;-69
2024/01/24 04:07:01;;;;;;;10.20;7.22;;;;;;;3.18;63.18;95625.03;4189312;28;20066;-67
2024/01/24 04:09:03;;;;;;;11.07;7.63;;;;;;;3.21;62.67;95623.13;4186502;28;20049;-69
2024/01/24 04:11:05;;;;;;;14.80;8.15;;;;;;;3.20;62.56;95634.38;4184372;28;20044;-68
2024/01/24 04:13:07;;;;;;;14.05;7.50;;;;;;;3.17;62.28;95647.53;4191474;28;20040;-68
2024/01/24 04:15:09;;;;;;;10.35;7.53;;;;;;;3.21;62.23;95651.59;4178623;28;20515;-70
2024/01/24 04:17:11;;;;;;;9.63;6.63;;;;;;;3.07;62.38;95654.16;4181952;28;20056;-69
2024/01/24 04:19:13;;;;;;;12.38;7.43;;;;;;;3.01;62.77;95642.44;4189174;28;20212;-69
2024/01/24 04:21:15;;;;;;;10.55;7.30;;;;;;;3.06;62.60;95657.69;4202123;28;20058;-69
2024/01/24 04:23:17;;;;;;;10.50;7.35;;;;;;;3.07;62.74;95656.75;4181400;28;20056;-69
2024/01/24 04:25:19;;;;;;;10.43;7.28;;;;;;;3.02;62.74;95649.25;4183900;28;20070;-69
2024/01/24 04:27:22;;;;;;;10.75;7.95;;;;;;;2.98;63.02;95659.88;4183191;28;20083;-71
2024/01/24 04:29:24;;;;;;;13.57;7.93;;;;;;;3.05;62.94;95663.78;4184173;28;20044;-71
2024/01/24 04:31:25;;;;;;;11.05;7.63;;;;;;;2.99;62.89;95659.81;4189460;28;20061;-70
2024/01/24 04:33:28;;;;;;;12.50;8.18;;;;;;;2.99;63.29;95661.53;4189293;28;20053;-71
2024/01/24 04:35:30;;;;;;;12.13;8.43;;;;;;;2.97;63.09;95660.78;4182869;28;20082;-69
2024/01/24 04:37:31;;;;;;;12.57;8.02;;;;;;;2.97;63.57;95666.81;4187771;28;20411;-69
2024/01/24 04:39:33;;;;;;;10.63;7.75;;;;;;;3.05;63.34;95669.81;4187076;28;20137;-70
2024/01/24 04:41:36;;;;;;;10.55;7.50;;;;;;;3.07;63.07;95669.69;4173021;28;20103;-70
2024/01/24 04:43:41;;;;;;;19.00;9.55;;;;;;;2.97;63.19;95660.78;4181856;28;20041;-68
2024/01/24 04:45:43;;;;;;;12.75;8.35;;;;;;;2.94;63.98;95660.97;4191002;28;20087;-70
2024/01/24 04:47:45;;;;;;;13.40;9.05;;;;;;;2.83;63.65;95667.59;4195074;28;20166;-69
2024/01/24 04:49:47;;;;;;;12.38;8.15;;;;;;;2.83;64.13;95670.19;4188699;28;20131;-70
2024/01/24 04:51:50;;;;;;;12.75;8.50;;;;;;;2.82;64.14;95678.06;4190599;28;20048;-70
2024/01/24 04:53:51;;;;;;;13.23;8.68;;;;;;;2.84;64.17;95676.22;4188031;28;20041;-70
2024/01/24 04:55:53;;;;;;;13.70;9.07;;;;;;;2.67;64.48;95672.84;4190945;28;20048;-71
2024/01/24 04:57:55;;;;;;;11.57;8.85;;;;;;;2.76;64.74;95683.59;4196656;28;20086;-71
2024/01/24 04:59:57;;;;;;;12.70;8.88;;;;;;;2.80;65.11;95685.06;4192005;28;20144;-68
2024/01/24 05:02:03;;;;;;;12.48;9.13;;;;;;;2.75;64.84;95684.50;4186705;28;20056;-70
2024/01/24 05:04:05;;;;;;;15.13;10.10;;;;;;;2.75;64.85;95693.06;4183389;28;20051;-70
2024/01/24 05:06:07;;;;;;;14.18;10.02;;;;;;;2.72;64.52;95693.25;4184042;28;20098;-69
2024/01/24 05:08:12;;;;;;;13.00;9.77;;;;;;;2.72;64.71;95700.19;4189992;28;20048;-69
2024/01/24 05:10:14;;;;;;;14.23;9.00;;;;;;;2.78;64.57;95698.09;4190415;28;20448;-70
2024/01/24 05:12:16;;;;;;;14.95;8.70;;;;;;;2.84;64.26;95692.56;4188933;28;20045;-71
2024/01/24 05:14:18;;;;;;;12.80;8.57;;;;;;;2.89;64.12;95697.47;4182209;28;20052;-69
2024/01/24 05:16:19;;;;;;;13.10;8.60;;;;;;;2.82;64.52;95704.75;4192054;28;20052;-70
2024/01/24 05:18:22;;;;;;;13.32;8.90;;;;;;;2.82;63.78;95706.53;4189309;28;20447;-71
2024/01/24 05:20:24;;;;;;;12.68;9.30;;;;;;;2.81;64.16;95708.25;4193789;28;20120;-70
2024/01/24 05:22:25;;;;;;;13.68;9.30;;;;;;;2.80;64.31;95711.78;4190397;28;20052;-69
2024/01/24 05:24:27;;;;;;;13.18;9.23;;;;;;;2.75;63.98;95716.38;4189163;28;20055;-70
2024/01/24 05:26:29;;;;;;;17.50;9.88;;;;;;;2.80;63.82;95705.78;4187286;28;20052;-69
2024/01/24 05:28:31;;;;;;;14.13;9.88;;;;;;;2.82;64.08;95709.13;4186738;28;20055;-71
2024/01/24 05:30:32;;;;;;;15.18;10.27;;;;;;;2.80;64.08;95709.19;4186069;28;20068;-67
2024/01/24 05:32:37;;;;;;;15.32;9.73;;;;;;;2.81;64.23;95713.44;4188680;28;20052;-70
2024/01/24 05:34:39;;;;;;;14.88;10.20;;;;;;;2.73;64.48;95704.44;4183154;28;20056;-70
2024/01/24 05:36:41;;;;;;;14.27;10.32;;;;;;;2.70;64.61;95700.28;4189227;28;20525;-71
2024/01/24 05:38:43;;;;;;;13.52;10.35;;;;;;;2.75;64.69;95698.25;4192847;28;20048;-69
2024/01/24 05:40:45;;;;;;;15.63;10.63;;;;;;;2.83;64.36;95700.41;4209926;28;20564;-70
2024/01/24 05:42:47;;;;;;;14.27;10.50;;;;;;;2.76;64.52;95709.47;4183094;28;20201;-68
2024/01/24 05:44:50;;;;;;;17.23;10.45;;;;;;;2.78;64.67;95705.84;4172861;28;20420;-69
2024/01/24 05:46:51;;;;;;;15.15;10.98;;;;;;;2.80;64.26;95709.19;4186281;28;20048;-70
2024/01/24 05:48:53;;;;;;;15.48;10.82;;;;;;;2.84;64.65;95709.88;4181933;28;20040;-70
2024/01/24 05:50:55;;;;;;;15.32;10.30;;;;;;;2.84;64.51;95708.09;4193730;28;20055;-72
2024/01/24 05:52:58;;;;;;;16.52;10.48;;;;;;;2.87;64.35;95707.91;4188765;28;20049;-70
2024/01/24 05:55:00;;;;;;;19.77;11.48;;;;;;;2.93;64.06;95709.34;4178514;28;20569;-70
2024/01/24 05:57:01;;;;;;;16.00;10.88;;;;;;;2.87;63.99;95709.69;4168056;28;20049;-69
2024/01/24 05:59:04;;;;;;;14.75;11.43;;;;;;;2.94;64.22;95707.56;4187259;28;20114;-69
2024/01/24 06:01:06;;;;;;;14.55;10.93;;;;;;;2.94;63.91;95698.03;4185857;28;20510;-69
2024/01/24 06:03:08;;;;;;;17.05;11.00;;;;;;;2.98;64.20;95706.47;4189854;28;20056;-69
2024/01/24 06:05:10;;;;;;;14.73;10.52;;;;;;;2.99;64.25;95705.53;4188721;28;20053;-71
2024/01/24 06:07:14;;;;;;;16.92;10.43;;;;;;;3.03;64.01;95715.66;4191161;28;20044;-69
2024/01/24 06:09:20;;;;;;;17.58;10.93;;;;;;;2.97;64.13;95703.06;4193073;28;20448;-70
2024/01/24 06:11:22;;;;;;;13.77;10.30;;;;;;;2.94;64.21;95702.41;4183980;28;20059;-70
2024/01/24 06:13:24;;;;;;;14.73;9.82;;;;;;;2.78;64.06;95711.03;4182872;28;20376;-71
2024/01/24 06:15:27;;;;;;;15.18;10.13;;;;;;;2.75;64.74;95711.19;4185877;28;20048;-68
2024/01/24 06:17:29;;;;;;;15.90;9.93;;;;;;;2.79;64.98;95704.91;4191708;28;20049;-71
2024/01/24 06:19:33;;;;;;;;;;;;;;;2.76;64.32;95702.53;4184932;28;20126;-70
2024/01/24 06:21:35;;;;;;;14.77;9.68;;;;;;;2.81;64.37;95695.31;4190596;28;20313;-70
2024/01/24 06:23:36;;;;;;;15.40;9.57;;;;;;;2.74;64.78;95700.94;4191806;28;20290;-71
2024/01/24 06:25:38;;;;;;;16.45;10.15;;;;;;;2.69;64.83;95696.03;4193028;28;20064;-69
2024/01/24 06:27:42;;;;;;;13.48;9.85;;;;;;;2.70;64.87;95702.03;4187703;28;20059;-70
2024/01/24 06:29:44;;;;;;;14.35;10.48;;;;;;;2.78;64.72;95695.50;4201499;28;20090;-71
2024/01/24 06:32:06;;;;;;;13.48;10.35;;;;;;;2.82;64.70;95694.41;4184910;28;20045;-71
2024/01/24 06:34:08;;;;;;;16.70;11.13;;;;;;;2.86;64.22;95682.13;4182319;28;20155;-70
2024/01/24 06:36:10;;;;;;;17.45;10.88;;;;;;;2.94;64.41;95686.88;4191329;28;20048;-71
2024/01/24 06:38:12;;;;;;;16.45;11.13;;;;;;;2.97;64.38;95689.25;4187035;28;20049;-70
2024/01/24 06:40:15;;;;;;;16.30;11.18;;;;;;;2.99;64.01;95698.63;4207680;28;20113;-69
2024/01/24 06:42:16;;;;;;;16.08;11.10;;;;;;;3.00;63.76;95689.94;4186013;28;20098;-70
2024/01/24 06:44:18;;;;;;;16.77;10.65;;;;;;;3.01;63.66;95683.00;4183244;28;20059;-71
2024/01/24 06:46:20;;;;;;;16.17;11.07;;;;;;;3.04;63.45;95688.00;4189847;28;20052;-72
2024/01/24 06:48:23;;;;;;;17.65;11.00;;;;;;;3.05;63.71;95694.84;4188341;28;20467;-71
2024/01/24 06:50:25;;;;;;;19.17;11.65;;;;;;;3.06;63.57;95681.81;4189862;28;20091;-70
2024/01/24 06:52:28;;;;;;;15.40;10.98;;;;;;;3.14;63.13;95683.09;4190946;28;20193;-71
2024/01/24 06:54:35;;;;;;;14.80;10.82;;;;;;;3.08;63.21;95679.13;4189333;28;20124;-70
2024/01/24 06:56:37;;;;;;;16.77;11.48;;;;;;;3.07;63.36;95686.06;4188568;28;20080;-70
2024/01/24 06:58:40;;;;;;;17.98;11.18;;;;;;;3.05;63.40;95689.66;4183544;28;20372;-71
2024/01/24 07:00:42;;;;;;;17.48;11.68;;;;;;;3.16;63.93;95687.31;4185783;28;20055;-71
2024/01/24 07:02:44;;;;;;;15.07;10.63;;;;;;;3.36;63.51;95680.13;4190859;28;20040;-71
2024/01/24 07:04:46;;;;;;;13.38;10.18;;;;;;;3.48;62.87;95681.94;4188978;28;20057;-71
2024/01/24 07:06:48;;;;;;;16.65;9.73;;;;;;;3.63;61.97;95683.63;4181371;28;20087;-72
2024/01/24 07:08:50;;;;;;;17.00;10.23;;;;;;;3.72;61.68;95679.63;4187489;28;20503;-70
2024/01/24 07:10:52;;;;;;;14.48;10.32;;;;;;;3.67;61.58;95672.16;4193066;28;20055;-71
2024/01/24 07:12:55;;;;;;;15.20;9.15;;;;;;;3.65;61.93;95668.81;4177847;28;20581;-70
2024/01/24 07:14:57;;;;;;;15.63;10.02;;;;;;;3.67;61.94;95672.16;4186703;28;20078;-70
2024/01/24 07:17:00;;;;;;;14.93;9.93;;;;;;;3.78;62.01;95678.44;4186276;28;20155;-70
2024/01/24 07:19:02;;;;;;;14.05;9.75;;;;;;;3.88;61.85;95675.19;4191181;28;20049;-70
2024/01/24 07:21:06;;;;;;;13.55;9.90;;;;;;;4.03;61.33;95673.41;4186811;28;20555;-70
2024/01/24 07:23:08;;;;;;;12.93;9.52;;;;;;;4.15;60.93;95687.41;4192444;28;20088;-71
2024/01/24 07:25:10;;;;;;;14.02;9.35;;;;;;;4.15;59.82;95683.94;4180981;28;20060;-71
2024/01/24 07:27:12;;;;;;;12.90;8.30;;;;;;;4.24;59.84;95678.22;4189565;28;20056;-70
2024/01/24 07:29:15;;;;;;;9.75;7.97;;;;;;;4.30;59.34;95683.84;4185685;28;20563;-72
2024/01/24 07:31:17;;;;;;;12.43;8.43;;;;;;;4.47;59.63;95690.56;4188101;28;20143;-70
2024/01/24 07:33:19;;;;;;;15.85;8.98;;;;;;;4.50;58.52;95690.34;4187057;28;20049;-70
2024/01/24 07:35:25;;;;;;;16.30;8.50;;;;;;;4.42;58.92;95704.75;4186667;28;20529;-70
2024/01/24 07:37:27;;;;;;;14.10;8.65;;;;;;;4.33;59.12;95707.91;4191473;28;20049;-72
2024/01/24 07:39:29;;;;;;;13.25;8.60;;;;;;;4.44;59.08;95713.25;4188571;28;20059;-71
2024/01/24 07:41:30;;;;;;;12.13;7.45;;;;;;;4.56;59.03;95716.81;4185689;28;20054;-70
2024/01/24 07:43:33;;;;;;;12.50;8.23;;;;;;;4.68;58.91;95719.47;4180615;28;20135;-69
2024/01/24 07:45:36;;;;;;;18.33;9.52;;;;;;;4.55;58.28;95716.00;4183462;28;20056;-71
2024/01/24 07:47:38;;;;;;;13.57;9.33;;;;;;;4.52;58.41;95726.59;4191702;28;20044;-69
2024/01/24 07:49:41;;;;;;;13.98;9.48;;;;;;;4.69;58.82;95717.72;4181177;28;20171;-70
2024/01/24 07:51:46;;;;;;;13.95;9.70;;;;;;;4.85;58.54;95715.81;4204238;28;20044;-71
2024/01/24 07:53:48;;;;;;;17.00;10.15;;;;;;;4.86;58.28;95720.06;4185268;28;20448;-69
2024/01/24 07:55:50;;;;;;;13.27;9.40;;;;;;;4.84;57.67;95721.09;4188073;28;20407;-70
2024/01/24 07:58:03;;;;;;;13.02;8.85;;;;;;;4.61;59.02;95723.41;4181744;28;20048;-70
2024/01/24 08:00:06;;;;;;;13.07;8.65;;;;;;;4.40;59.52;95730.78;4185260;28;20205;-70
2024/01/24 08:02:09;;;;;;;13.18;9.85;;;;;;;4.42;58.89;95733.28;4184086;28;20040;-69
2024/01/24 08:04:11;;;;;;;13.13;8.68;;;;;;;4.23;60.59;95729.22;4176745;28;20055;-70
2024/01/24 08:06:13;;;;;;;14.20;8.98;;;;;;;4.06;60.35;95730.25;4189964;28;20213;-71
2024/01/24 08:08:15;;;;;;;11.85;7.97;;;;;;;4.15;60.76;95723.69;4191004;28;20056;-69
2024/01/24 08:10:17;;;;;;;16.35;8.60;;;;;;;3.88;60.75;95731.41;4191812;28;20049;-69
2024/01/24 08:12:19;;;;;;;10.98;7.82;;;;;;;3.56;61.50;95725.56;4181201;28;20052;-70
2024/01/24 08:14:21;;;;;;;13.18;9.00;;;;;;;3.28;63.41;95729.75;4185623;28;20511;-70
2024/01/24 08:16:23;;;;;;;12.57;9.02;;;;;;;3.58;62.86;95729.72;4177615;28;20067;-71
2024/01/24 08:18:25;;;;;;;13.88;9.02;;;;;;;4.00;61.53;95730.66;4196033;28;20055;-71
2024/01/24 08:20:27;;;;;;;14.95;9.20;;;;;;;4.12;60.12;95739.44;4194149;28;20485;-70
2024/01/24 08:22:29;;;;;;;13.50;8.65;;;;;;;4.23;59.71;95731.00;4191089;28;20318;-68
2024/01/24 08:24:31;;;;;;;13.18;9.68;;;;;;;3.93;60.92;95736.28;4181309;28;20357;-69
2024/01/24 08:26:33;;;;;;;16.88;10.75;;;;;;;4.20;61.60;95736.38;4188078;28;20095;-70
2024/01/24 08:28:35;;;;;;;14.50;9.38;;;;;;;4.11;60.57;95748.16;4192604;28;20476;-71
2024/01/24 08:30:37;;;;;;;11.98;7.95;;;;;;;4.23;61.33;95746.56;4186251;28;20084;-69
2024/01/24 08:32:40;;;;;;;11.73;7.35;;;;;;;4.49;60.42;95747.53;4187156;28;20586;-70
2024/01/24 08:34:43;;;;;;;12.02;7.78;;;;;;;4.54;58.97;95742.03;4191225;28;20041;-68
2024/01/24 08:36:45;;;;;;;12.50;7.95;;;;;;;4.50;59.89;95733.63;4189116;28;20045;-70
2024/01/24 08:38:49;;;;;;;22.92;13.27;;;;;;;4.10;60.51;95742.13;4194534;28;20181;-68
2024/01/24 08:40:51;;;;;;;11.85;8.70;;;;;;;4.16;60.67;95737.50;4192093;28;20123;-68
2024/01/24 08:42:52;;;;;;;14.68;9.40;;;;;;;3.84;60.94;95727.31;4183761;28;20053;-68
2024/01/24 08:44:54;;;;;;;12.80;9.07;;;;;;;3.38;62.98;95724.88;4175763;28;20502;-68
2024/01/24 08:46:56;;;;;;;11.07;8.38;;;;;;;3.59;62.73;95727.94;4194967;28;20044;-70
2024/01/24 08:48:58;;;;;;;17.05;9.70;;;;;;;3.85;61.96;95729.81;4184661;28;20128;-70
2024/01/24 08:51:00;;;;;;;15.35;8.93;;;;;;;4.00;61.53;95725.47;4193862;28;20139;-69
2024/01/24 08:53:02;;;;;;;13.82;8.77;;;;;;;4.38;60.67;95718.81;4194199;28;20049;-70
2024/01/24 08:55:08;;;;;;;13.18;9.88;;;;;;;4.31;61.08;95731.34;4182589;28;20408;-70
2024/01/24 08:57:10;;;;;;;17.33;8.90;;;;;;;4.47;60.00;95724.28;4190635;28;20092;-70
2024/01/24 08:59:12;;;;;;;14.73;8.82;;;;;;;4.54;59.42;95721.28;4185853;28;20138;-70
2024/01/24 09:01:14;;;;;;;16.15;10.68;;;;;;;4.50;59.74;95731.88;4192537;28;20099;-68
2024/01/24 09:03:16;;;;;;;15.30;10.80;;;;;;;4.22;60.50;95729.34;4190457;28;20403;-70
2024/01/24 09:05:19;;;;;;;16.08;10.15;;;;;;;4.17;61.53;95723.59;4167915;28;20538;-71
2024/01/24 09:07:21;;;;;;;18.42;10.20;;;;;;;4.33;60.78;95726.06;4193926;28;20442;-71
2024/01/24 09:09:25;;;;;;;20.90;12.98;;;;;;;3.71;62.29;95737.59;4207252;28;20048;-70
2024/01/24 09:11:27;;;;;;;20.25;12.93;;;;;;;3.15;64.29;95739.16;4190642;28;20049;-70
2024/01/24 09:13:38;;;;;;;18.00;12.07;;;;;;;3.10;65.33;95736.84;4182143;28;20053;-70
2024/01/24 09:15:40;;;;;;;19.48;11.65;;;;;;;3.45;64.03;95731.38;4179760;28;20447;-69
2024/01/24 09:17:43;;;;;;;21.02;13.68;;;;;;;3.58;64.10;95732.31;4184596;28;20392;-69
2024/01/24 09:19:45;;;;;;;21.80;13.48;;;;;;;3.23;65.50;95736.97;4188378;28;20092;-70
2024/01/24 09:21:47;;;;;;;19.80;12.27;;;;;;;3.68;63.96;95730.00;4187861;28;20041;-69
2024/01/24 09:23:50;;;;;;;15.32;11.52;;;;;;;3.10;64.12;95728.22;4199146;28;20313;-68
2024/01/24 09:25:52;;;;;;;17.17;11.70;;;;;;;3.26;64.36;95729.84;4186941;28;20458;-70
2024/01/24 09:27:56;;;;;;;16.67;10.95;;;;;;;3.71;63.39;95713.44;4192773;28;20569;-70
2024/01/24 09:29:58;;;;;;;17.10;11.05;;;;;;;3.96;62.39;95708.44;4187077;28;20059;-70
2024/01/24 09:32:00;;;;;;;17.20;11.25;;;;;;;4.22;61.53;95708.59;4204005;28;20086;-71
2024/01/24 09:34:02;;;;;;;16.27;11.95;;;;;;;4.45;61.55;95707.13;4192410;28;20048;-69
2024/01/24 09:36:04;;;;;;;16.15;11.70;;;;;;;4.33;60.59;95706.16;4187574;28;20153;-70
2024/01/24 09:38:06;;;;;;;17.40;11.35;;;;;;;4.46;61.48;95701.03;4193592;28;20079;-71